Time;durP1;ratioP1;P1;durP2;ratioP2;P2;SDS_P1;SDS_P2;PMS_P1;PMS_P2;Temp;Humidity;BMP_temperature;BMP_pressure;BME280_temperature;BME280_humidity;BME280_pressure;Samples;Min_cycle;Max_cycle;Signal;HPM_P1;HPM_P2
2023/12/11 00:00:31;;;;;;;;;3.33;2.00;;;;;12.11;87.84;100274.81;5058770;28;45515;-78
2023/12/11 00:02:59;;;;;;;;;1.00;1.00;;;;;12.35;88.01;100310.41;5057879;28;45457;-75
2023/12/11 00:05:24;;;;;;;;;2.67;1.33;;;;;12.35;87.72;100320.03;5053201;28;46026;-72
2023/12/11 00:07:51;;;;;;;;;4.00;1.33;;;;;12.31;87.30;100300.81;5057405;28;45512;-73
2023/12/11 00:10:17;;;;;;;;;5.33;2.00;;;;;12.08;87.38;100273.09;5056851;28;45475;-70
2023/12/11 00:12:43;;;;;;;;;2.00;2.00;;;;;12.26;87.59;100293.00;5058144;28;45595;-73
2023/12/11 00:15:13;;;;;;;;;2.33;2.00;;;;;12.23;87.03;100287.78;5058307;28;45512;-73
2023/12/11 00:17:38;;;;;;;;;3.00;1.67;;;;;12.17;87.28;100282.63;5052199;28;45466;-72
2023/12/11 00:20:05;;;;;;;;;2.00;1.33;;;;;11.99;86.76;100254.81;5054928;28;45481;-72
2023/12/11 00:22:31;;;;;;;;;5.67;2.00;;;;;11.90;86.79;100246.19;5056355;28;45676;-71
2023/12/11 00:24:57;;;;;;;;;5.00;3.00;;;;;12.21;86.40;100297.44;5056725;28;45594;-73
2023/12/11 00:27:22;;;;;;;;;6.67;2.00;;;;;12.00;86.35;100258.31;5058862;28;45526;-71
2023/12/11 00:29:48;;;;;;;;;4.00;1.00;;;;;12.19;86.76;100279.97;5057471;28;45453;-71
2023/12/11 00:32:14;;;;;;;;;1.67;1.00;;;;;11.87;85.79;100234.84;5056164;28;45330;-75
2023/12/11 00:34:40;;;;;;;;;5.00;2.00;;;;;12.15;86.34;100286.13;5055736;28;45444;-76
2023/12/11 00:37:06;;;;;;;;;4.67;2.00;;;;;12.04;85.89;100275.78;5058945;28;45334;-79
2023/12/11 00:39:31;;;;;;;;;8.67;2.00;;;;;12.12;86.27;100278.28;5060274;28;45350;-78
2023/12/11 00:41:57;;;;;;;;;3.00;1.33;;;;;12.04;85.90;100275.78;5057516;28;45504;-78
2023/12/11 00:44:23;;;;;;;;;4.00;1.00;;;;;11.87;85.74;100250.59;5058241;28;45223;-79
2023/12/11 00:46:48;;;;;;;;;6.33;1.00;;;;;11.89;85.34;100253.19;5059456;28;45161;-79
2023/12/11 00:49:15;;;;;;;;;2.67;1.00;;;;;11.94;85.51;100277.63;5058204;28;45435;-72
2023/12/11 00:51:41;;;;;;;;;4.00;1.67;;;;;12.03;85.29;100295.00;5073371;27;46811;-76
2023/12/11 00:54:07;;;;;;;;;3.00;1.33;;;;;11.89;85.26;100266.31;5057715;28;45468;-78
2023/12/11 00:56:33;;;;;;;;;2.33;1.00;;;;;12.04;85.37;100296.75;5059625;28;45417;-74
2023/12/11 00:58:59;;;;;;;;;2.33;2.00;;;;;12.05;85.29;100293.25;5057991;28;45444;-76
2023/12/11 01:01:24;;;;;;;;;3.33;2.00;;;;;12.01;85.24;100283.69;5057509;28;45485;-72
2023/12/11 01:03:50;;;;;;;;;2.00;2.00;;;;;11.90;84.42;100260.16;5058649;28;45311;-78
2023/12/11 01:06:22;;;;;;;;;3.33;2.00;;;;;11.91;84.46;100279.41;5055635;28;45463;-76
2023/12/11 01:08:50;;;;;;;;;1.33;1.33;;;;;11.95;84.58;100275.88;5055814;28;45620;-72
2023/12/11 01:11:16;;;;;;;;;7.00;4.00;;;;;11.83;85.24;100267.19;5057779;28;46229;-79
2023/12/11 01:13:42;;;;;;;;;3.67;2.00;;;;;11.76;84.77;100270.78;5058487;28;45343;-78
2023/12/11 01:16:46;;;;;;;;;3.00;2.00;;;;;11.95;84.91;100310.84;5056953;28;45405;-78
2023/12/11 01:19:12;;;;;;;;;3.33;1.00;;;;;11.88;84.61;100293.44;5048630;28;45393;-77
2023/12/11 01:21:37;;;;;;;;;7.33;1.00;;;;;11.98;84.08;100308.22;5057331;28;45250;-78
2023/12/11 01:24:10;;;;;;;;;2.33;2.33;;;;;11.84;84.54;100278.56;5056403;28;45181;-75
2023/12/11 01:26:47;;;;;;;;;2.67;2.00;;;;;11.97;84.85;100311.72;5055205;28;45429;-77
2023/12/11 01:29:32;;;;;;;;;3.67;2.00;;;;;11.86;84.11;100303.03;5054646;28;45477;-76
2023/12/11 01:31:57;;;;;;;;;4.33;2.00;;;;;11.84;84.08;100304.78;5048382;28;47081;-77
2023/12/11 01:34:23;;;;;;;;;2.00;2.00;;;;;11.98;84.57;100339.72;5056038;28;46094;-77
2023/12/11 01:36:52;;;;;;;;;2.00;2.00;;;;;11.99;84.06;100316.94;5056683;28;45602;-72
2023/12/11 01:39:17;;;;;;;;;5.00;2.00;;;;;11.41;83.97;100211.69;5057289;28;45500;-73
2023/12/11 01:41:43;;;;;;;;;2.33;2.00;;;;;11.98;83.76;100300.34;5056772;28;45408;-74
2023/12/11 01:44:09;;;;;;;;;7.33;1.00;;;;;11.99;83.58;100293.31;5058212;28;45436;-71
2023/12/11 01:46:34;;;;;;;;;3.00;1.00;;;;;12.02;83.83;100309.91;5058382;28;45506;-71
2023/12/11 01:49:00;;;;;;;;;2.00;2.00;;;;;11.93;83.76;100303.88;5059026;28;45650;-74
2023/12/11 01:51:26;;;;;;;;;1.67;1.67;;;;;12.02;83.32;100317.78;5058390;28;46121;-71
2023/12/11 01:53:52;;;;;;;;;5.33;2.00;;;;;12.02;83.67;100314.28;5057165;28;45606;-72
2023/12/11 01:56:20;;;;;;;;;2.33;2.00;;;;;12.02;83.27;100340.53;5058008;28;45292;-69
2023/12/11 01:58:46;;;;;;;;;4.00;2.00;;;;;11.83;83.29;100300.44;5056927;28;45408;-71
2023/12/11 02:01:14;;;;;;;;;2.00;1.33;;;;;12.03;83.99;100332.66;5057291;28;45436;-71
2023/12/11 02:03:41;;;;;;;;;2.67;1.00;;;;;11.95;83.24;100321.34;5057803;28;45527;-71
2023/12/11 02:06:07;;;;;;;;;3.00;3.00;;;;;11.97;83.73;100292.47;5055427;28;45442;-74
2023/12/11 02:08:33;;;;;;;;;3.67;2.00;;;;;11.73;83.49;100248.97;5056437;28;45469;-74
2023/12/11 02:11:00;;;;;;;;;6.00;2.00;;;;;11.51;83.23;100201.97;5057465;28;45926;-71
2023/12/11 02:13:26;;;;;;;;;3.67;2.67;;;;;12.05;83.36;100290.63;5058528;28;45380;-72
2023/12/11 02:15:52;;;;;;;;;3.00;2.00;;;;;12.04;83.72;100284.50;5051752;28;45466;-72
2023/12/11 02:18:17;;;;;;;;;6.67;3.33;;;;;12.02;83.85;100291.53;5050824;28;45341;-76
2023/12/11 02:20:44;;;;;;;;;3.00;2.00;;;;;12.03;83.08;100292.38;5060723;28;46286;-74
2023/12/11 02:23:40;;;;;;;;;4.33;3.33;;;;;11.90;83.45;100269.81;5060797;28;45586;-75
2023/12/11 02:26:13;;;;;;;;;3.00;3.00;;;;;12.04;83.46;100287.13;5060901;28;45338;-73
2023/12/11 02:28:39;;;;;;;;;0.67;0.67;;;;;12.02;83.26;100280.16;5060420;28;45418;-76
2023/12/11 02:31:05;;;;;;;;;2.00;1.33;;;;;11.92;83.00;100261.03;5059727;28;46088;-74
2023/12/11 02:33:31;;;;;;;;;4.67;2.33;;;;;11.96;83.19;100253.97;5061697;28;45398;-72
2023/12/11 02:35:57;;;;;;;;;3.33;1.00;;;;;12.00;82.97;100269.66;5062805;28;45700;-72
2023/12/11 02:38:22;;;;;;;;;3.33;2.00;;;;;12.01;83.07;100274.06;5067929;28;45355;-73
2023/12/11 02:40:48;;;;;;;;;6.67;3.33;;;;;12.00;83.33;100274.06;5085193;28;46839;-73
2023/12/11 02:43:14;;;;;;;;;4.00;1.67;;;;;11.87;83.92;100250.59;5067869;28;45397;-72
2023/12/11 02:45:41;;;;;;;;;4.00;2.00;;;;;11.96;83.48;100241.75;5061908;28;45724;-77
2023/12/11 02:48:06;;;;;;;;;3.00;2.00;;;;;11.66;83.43;100200.94;5060878;28;45364;-78
2023/12/11 02:50:33;;;;;;;;;4.00;2.00;;;;;11.90;84.31;100243.56;5075847;27;47842;-74
2023/12/11 02:52:59;;;;;;;;;5.00;2.67;;;;;11.77;83.76;100225.31;5058681;28;45585;-78
2023/12/11 02:55:26;;;;;;;;;3.67;1.33;;;;;11.99;83.55;100272.34;5059747;28;45371;-76
2023/12/11 02:57:59;;;;;;;;;2.33;2.33;;;;;11.90;84.20;100247.03;5060152;28;45399;-79
2023/12/11 03:00:26;;;;;;;;;4.00;2.00;;;;;11.70;83.81;100213.13;5059460;28;46222;-76
2023/12/11 03:02:51;;;;;;;;;2.00;2.00;;;;;12.02;83.78;100251.28;5059450;28;45232;-75
2023/12/11 03:05:17;;;;;;;;;3.00;2.00;;;;;12.02;83.82;100253.91;5059189;28;45505;-76
2023/12/11 03:07:43;;;;;;;;;4.00;3.00;;;;;11.86;83.34;100222.59;5060418;28;45277;-77
2023/12/11 03:10:08;;;;;;;;;3.33;2.00;;;;;11.82;83.55;100220.00;5060724;28;46670;-76
2023/12/11 03:12:35;;;;;;;;;2.67;2.00;;;;;11.79;83.79;100218.28;5060013;28;45357;-77
2023/12/11 03:15:02;;;;;;;;;3.67;2.67;;;;;11.23;83.34;100143.69;5059485;28;45337;-77
2023/12/11 03:17:28;;;;;;;;;5.33;2.00;;;;;11.24;83.61;100129.69;5061188;28;45472;-77
2023/12/11 03:19:53;;;;;;;;;3.33;1.67;;;;;11.22;83.88;100113.13;5060323;28;46144;-78
2023/12/11 03:22:19;;;;;;;;;6.00;1.00;;;;;12.01;84.05;100244.31;5060826;28;45564;-77
2023/12/11 03:24:46;;;;;;;;;3.33;2.67;;;;;12.02;83.63;100246.03;5060988;28;45522;-76
2023/12/11 03:27:12;;;;;;;;;2.00;1.33;;;;;11.41;83.59;100129.50;5059416;28;45345;-74
2023/12/11 03:29:37;;;;;;;;;2.67;1.33;;;;;12.02;83.52;100235.53;5059152;28;46164;-77
2023/12/11 03:32:08;;;;;;;;;2.00;1.67;;;;;11.77;83.85;100188.56;5060114;28;45448;-76
2023/12/11 03:34:34;;;;;;;;;3.67;3.00;;;;;12.02;83.59;100223.28;5060276;28;45410;-77
2023/12/11 03:36:59;;;;;;;;;5.67;1.33;;;;;11.94;84.14;100200.66;5061187;28;45514;-74
2023/12/11 03:39:25;;;;;;;;;3.00;2.00;;;;;11.88;83.62;100209.44;5059203;28;46244;-74
2023/12/11 03:41:51;;;;;;;;;5.33;2.67;;;;;11.96;83.81;100226.00;5057597;28;45406;-76
2023/12/11 03:44:17;;;;;;;;;6.00;1.67;;;;;12.06;84.15;100243.38;5058036;28;45390;-69
2023/12/11 03:46:43;;;;;;;;;2.33;2.00;;;;;12.05;83.77;100218.00;5058897;28;45413;-70
2023/12/11 03:49:09;;;;;;;;;8.67;3.00;;;;;11.20;84.11;100071.22;5057160;28;46696;-76
2023/12/11 03:51:35;;;;;;;;;3.00;2.00;;;;;11.88;84.06;100170.94;5058179;28;45546;-71
2023/12/11 03:54:00;;;;;;;;;8.67;3.00;;;;;11.99;84.52;100193.59;5058509;28;45306;-72
2023/12/11 03:56:27;;;;;;;;;2.00;2.00;;;;;12.00;84.09;100187.44;5058143;28;45595;-76
2023/12/11 03:58:53;;;;;;;;;1.00;1.00;;;;;12.03;84.41;100203.13;5059698;28;46514;-76
2023/12/11 04:01:25;;;;;;;;;4.00;3.00;;;;;11.93;83.89;100189.28;5058075;28;45475;-75
2023/12/11 04:03:50;;;;;;;;;2.00;1.67;;;;;12.08;83.86;100222.34;5059016;28;45329;-75
2023/12/11 04:06:18;;;;;;;;;3.33;1.00;;;;;12.09;84.02;100217.06;5057492;28;45359;-76
2023/12/11 04:08:44;;;;;;;;;5.33;2.33;;;;;11.82;84.32;100152.66;5059475;28;46067;-75
2023/12/11 04:11:10;;;;;;;;;6.67;4.00;;;;;11.76;83.65;100168.44;5059178;28;45423;-72
2023/12/11 04:13:36;;;;;;;;;5.33;2.33;;;;;11.53;84.31;100111.03;5074985;27;45292;-70
2023/12/11 04:16:11;;;;;;;;;8.33;4.33;;;;;12.14;84.26;100201.25;5058967;28;45525;-78
2023/12/11 04:18:38;;;;;;;;;7.33;4.00;;;;;12.07;84.42;100200.47;5056843;28;47935;-77
2023/12/11 04:21:06;;;;;;;;;3.00;3.00;;;;;12.07;84.12;100197.84;5058497;28;45393;-75
2023/12/11 04:23:32;;;;;;;;;1.00;1.00;;;;;12.09;84.34;100198.69;5058074;28;45386;-78
2023/12/11 04:26:09;;;;;;;;;6.00;3.00;;;;;12.08;84.20;100194.34;5057642;28;45782;-74
2023/12/11 04:28:35;;;;;;;;;4.33;2.00;;;;;12.09;84.17;100201.31;5056906;28;46133;-75
2023/12/11 04:31:06;;;;;;;;;5.33;2.00;;;;;12.11;84.16;100201.31;5057334;28;45438;-75
2023/12/11 04:33:32;;;;;;;;;6.67;1.67;;;;;12.13;85.73;100198.69;5074344;28;45448;-74
2023/12/11 04:35:59;;;;;;;;;3.00;2.67;;;;;12.18;85.68;100215.22;5059139;28;45562;-74
2023/12/11 04:38:24;;;;;;;;;4.67;2.33;;;;;12.22;85.54;100194.16;5056126;28;46715;-74
2023/12/11 04:40:50;;;;;;;;;6.00;3.33;;;;;12.23;84.99;100192.41;5056364;28;45359;-74
2023/12/11 04:43:16;;;;;;;;;4.00;2.33;;;;;12.22;86.39;100194.16;5057711;28;45412;-73
2023/12/11 04:45:42;;;;;;;;;4.33;2.00;;;;;12.33;85.18;100203.66;5058068;28;45496;-75
2023/12/11 04:48:11;;;;;;;;;3.00;2.00;;;;;12.35;85.35;100202.72;5056993;28;45481;-74
2023/12/11 04:50:37;;;;;;;;;5.00;3.00;;;;;12.29;84.71;100166.94;5056508;28;45471;-74
2023/12/11 04:53:12;;;;;;;;;5.33;2.33;;;;;12.43;84.26;100174.63;5057754;28;45566;-77
2023/12/11 04:55:37;;;;;;;;;8.00;4.00;;;;;11.45;83.85;100023.72;5058891;28;45402;-74
2023/12/11 04:58:03;;;;;;;;;7.33;3.33;;;;;12.32;83.28;100145.00;5057472;28;45755;-74
2023/12/11 05:00:28;;;;;;;;;6.67;3.33;;;;;12.16;83.46;100139.09;5058242;28;46208;-75
2023/12/11 05:02:54;;;;;;;;;6.33;2.00;;;;;12.32;83.93;100187.03;5057598;28;45474;-74
2023/12/11 05:05:20;;;;;;;;;7.00;4.00;;;;;12.28;85.26;100190.56;5057798;28;45238;-72
2023/12/11 05:07:45;;;;;;;;;6.33;2.67;;;;;12.39;84.78;100209.69;5056748;28;46018;-75
2023/12/11 05:10:11;;;;;;;;;4.67;2.67;;;;;12.50;84.59;100222.66;5056872;28;45458;-75
2023/12/11 05:12:41;;;;;;;;;4.67;2.33;;;;;12.51;84.09;100220.00;5058988;28;45425;-74
2023/12/11 05:15:07;;;;;;;;;3.33;3.33;;;;;12.58;83.66;100226.06;5057123;28;45541;-75
2023/12/11 05:17:33;;;;;;;;;5.33;4.00;;;;;12.59;83.19;100211.16;5056416;28;45481;-73
2023/12/11 05:19:58;;;;;;;;;5.67;1.67;;;;;12.60;83.35;100226.91;5057997;28;45404;-75
2023/12/11 05:22:24;;;;;;;;;6.33;2.00;;;;;12.40;83.61;100176.41;5057374;28;45394;-75
2023/12/11 05:24:50;;;;;;;;;6.67;3.00;;;;;12.64;83.24;100218.06;5056733;28;45521;-74
2023/12/11 05:27:27;;;;;;;;;6.00;2.00;;;;;12.40;82.98;100165.91;5057663;27;46004;-74
2023/12/11 05:29:53;;;;;;;;;3.33;2.00;;;;;12.60;82.66;100192.75;5057298;28;45453;-74
2023/12/11 05:32:19;;;;;;;;;7.33;3.33;;;;;12.69;84.11;100213.66;5058453;28;45442;-76
2023/12/11 05:34:45;;;;;;;;;4.00;4.00;;;;;12.64;82.70;100204.06;5054610;28;45505;-72
2023/12/11 05:37:10;;;;;;;;;2.33;1.00;;;;;12.76;83.00;100222.28;5073372;27;45547;-74
2023/12/11 05:39:36;;;;;;;;;5.00;2.00;;;;;12.71;82.62;100208.34;5059111;28;45400;-74
2023/12/11 05:42:02;;;;;;;;;3.00;3.00;;;;;12.59;83.04;100177.88;5058264;28;45396;-72
2023/12/11 05:44:27;;;;;;;;;3.33;0.67;;;;;12.84;82.39;100219.56;5057157;28;45407;-72
2023/12/11 05:46:54;;;;;;;;;3.33;1.33;;;;;12.86;82.04;100220.38;5057659;28;45946;-72
2023/12/11 05:49:20;;;;;;;;;4.67;1.33;;;;;12.86;81.72;100212.47;5056555;28;45352;-71
2023/12/11 05:51:46;;;;;;;;;2.67;1.67;;;;;12.67;81.18;100186.53;5054772;28;45409;-71
2023/12/11 05:54:12;;;;;;;;;5.33;2.00;;;;;12.61;81.39;100177.84;5060834;28;45515;-74
2023/12/11 05:56:37;;;;;;;;;3.00;2.00;;;;;12.26;81.16;100134.59;5061931;28;45633;-74
2023/12/11 05:59:26;;;;;;;;;2.67;1.67;;;;;12.87;80.79;100227.38;5064582;28;45395;-70
2023/12/11 06:01:52;;;;;;;;;4.00;2.67;;;;;12.46;80.86;100161.44;5062404;28;45461;-75
2023/12/11 06:04:19;;;;;;;;;5.33;3.00;;;;;12.25;81.23;100138.97;5062131;28;45283;-75
2023/12/11 06:06:45;;;;;;;;;5.67;2.00;;;;;12.84;81.20;100214.28;5063688;28;46090;-76
2023/12/11 06:09:26;;;;;;;;;6.67;3.00;;;;;12.86;81.51;100234.41;5063945;28;45397;-74
2023/12/11 06:11:52;;;;;;;;;6.33;3.00;;;;;12.22;80.88;100122.38;5062861;28;45411;-76
2023/12/11 06:14:18;;;;;;;;;4.67;2.00;;;;;12.90;80.99;100256.25;5060532;28;45759;-72
2023/12/11 06:16:46;;;;;;;;;2.00;1.33;;;;;12.79;80.54;100211.75;5061325;28;45407;-74
2023/12/11 06:19:16;;;;;;;;;4.33;2.67;;;;;12.91;80.29;100223.81;5060230;28;45627;-72
2023/12/11 06:21:46;;;;;;;;;7.67;2.00;;;;;12.80;79.84;100223.13;5059653;28;45862;-75
2023/12/11 06:24:12;;;;;;;;;2.33;1.67;;;;;12.36;80.38;100148.44;5059227;28;45506;-75
2023/12/11 06:26:42;;;;;;;;;3.00;2.67;;;;;12.84;80.12;100246.69;5060012;28;46136;-73
2023/12/11 06:29:08;;;;;;;;;5.33;2.00;;;;;12.90;80.57;100250.97;5059176;28;45499;-71
2023/12/11 06:31:35;;;;;;;;;3.00;2.67;;;;;12.95;79.36;100257.03;5060941;28;45599;-76
2023/12/11 06:34:01;;;;;;;;;9.00;5.00;;;;;12.77;79.94;100218.78;5061027;28;45374;-75
2023/12/11 06:36:28;;;;;;;;;5.67;3.00;;;;;12.63;79.94;100205.84;5061055;28;46251;-76
2023/12/11 06:38:54;;;;;;;;;7.00;5.00;;;;;12.91;79.76;100250.97;5060806;28;45512;-77
2023/12/11 06:41:20;;;;;;;;;5.67;1.33;;;;;12.77;79.95;100246.81;5061578;28;45665;-75
2023/12/11 06:43:48;;;;;;;;;6.67;3.00;;;;;12.91;79.33;100282.50;5061066;28;45375;-76
2023/12/11 06:46:15;;;;;;;;;7.67;3.00;;;;;12.68;79.63;100237.31;5060986;28;45361;-78
2023/12/11 06:48:44;;;;;;;;;5.00;3.67;;;;;12.63;78.90;100232.13;5062392;28;45368;-76
2023/12/11 06:51:10;;;;;;;;;5.00;2.00;;;;;12.62;79.08;100230.34;5059834;28;45445;-78
2023/12/11 06:53:36;;;;;;;;;5.33;2.00;;;;;12.80;79.19;100252.03;5061847;28;45351;-77
2023/12/11 06:56:03;;;;;;;;;4.00;1.00;;;;;12.78;79.01;100259.91;5060545;28;46989;-74
2023/12/11 06:58:38;;;;;;;;;5.00;3.00;;;;;12.39;78.96;100187.81;5061663;28;45441;-78
2023/12/11 07:01:16;;;;;;;;;10.00;3.00;;;;;12.32;78.97;100194.91;5061642;28;45472;-75
2023/12/11 07:03:45;;;;;;;;;6.00;3.00;;;;;12.71;79.05;100267.00;5059586;28;45492;-77
2023/12/11 07:06:10;;;;;;;;;5.00;2.00;;;;;12.70;79.24;100275.78;5059405;28;45548;-72
2023/12/11 07:08:37;;;;;;;;;7.33;3.33;;;;;12.70;79.47;100272.31;5059651;28;45334;-77
2023/12/11 07:11:03;;;;;;;;;4.67;2.67;;;;;12.56;79.56;100259.34;5060088;28;45618;-79
2023/12/11 07:13:29;;;;;;;;;4.00;2.00;;;;;12.41;79.18;100239.44;5060016;28;45480;-77
2023/12/11 07:15:55;;;;;;;;;1.33;1.00;;;;;12.38;79.22;100228.94;5059516;28;46865;-80
2023/12/11 07:18:22;;;;;;;;;9.00;3.67;;;;;12.68;79.43;100300.38;5061146;28;45463;-75
2023/12/11 07:20:47;;;;;;;;;8.00;2.00;;;;;12.57;79.39;100275.97;5060832;28;45500;-73
2023/12/11 07:23:13;;;;;;;;;6.00;4.00;;;;;12.64;79.03;100299.50;5057340;28;45558;-74
2023/12/11 07:25:39;;;;;;;;;5.33;3.00;;;;;12.59;79.37;100288.22;5060437;28;45456;-73
2023/12/11 07:28:05;;;;;;;;;1.33;0.33;;;;;12.50;78.97;100280.44;5061148;28;45397;-75
2023/12/11 07:30:31;;;;;;;;;2.00;2.00;;;;;12.56;79.03;100306.66;5061887;28;45563;-76
2023/12/11 07:32:58;;;;;;;;;3.00;3.00;;;;;12.48;79.16;100309.38;5063320;28;45425;-71
2023/12/11 07:35:27;;;;;;;;;4.00;2.00;;;;;12.55;79.49;100330.28;5061367;28;46317;-80
2023/12/11 07:37:53;;;;;;;;;8.33;2.33;;;;;12.09;79.11;100252.94;5061522;28;45425;-79
2023/12/11 07:40:18;;;;;;;;;3.67;2.00;;;;;12.26;79.22;100300.00;5061288;27;45434;-72
2023/12/11 07:42:44;;;;;;;;;9.33;1.67;;;;;12.38;79.16;100322.63;5062193;28;45583;-74
2023/12/11 07:45:11;;;;;;;;;6.00;3.00;;;;;12.10;79.16;100275.69;5062788;28;45546;-79
2023/12/11 07:47:36;;;;;;;;;6.33;3.00;;;;;11.78;79.26;100232.28;5079279;27;45601;-79
2023/12/11 07:50:02;;;;;;;;;20.75;16.75;;;;;12.46;79.07;100344.44;5074397;28;45501;-76
2023/12/11 07:52:32;;;;;;;;;11.00;8.67;;;;;12.41;79.54;100327.84;5062205;28;45248;-80
2023/12/11 07:54:59;;;;;;;;;10.67;5.67;;;;;12.29;79.40;100324.50;5060700;28;47765;-79
2023/12/11 07:57:26;;;;;;;;;4.67;3.00;;;;;12.41;79.58;100333.97;5061716;28;45329;-77
2023/12/11 07:59:52;;;;;;;;;4.00;3.00;;;;;12.15;78.78;100307.13;5058638;28;45536;-77
2023/12/11 08:02:21;;;;;;;;;3.33;2.67;;;;;12.05;78.85;100282.75;5062123;28;45419;-81
2023/12/11 08:04:46;;;;;;;;;7.67;4.33;;;;;12.40;78.47;100344.50;5060591;28;45609;-79
2023/12/11 08:07:16;;;;;;;;;8.33;3.33;;;;;12.28;78.49;100327.97;5058159;28;45445;-77
2023/12/11 08:09:42;;;;;;;;;2.33;2.00;;;;;12.35;78.74;100347.16;5059653;28;45647;-80
2023/12/11 08:12:09;;;;;;;;;10.33;3.67;;;;;12.31;78.26;100334.94;5061074;28;45521;-79
2023/12/11 08:14:35;;;;;;;;;4.00;4.00;;;;;12.38;77.87;100351.53;5060159;28;46037;-81
2023/12/11 08:17:06;;;;;;;;;5.00;4.00;;;;;12.11;78.31;100314.19;5059399;28;45277;-79
2023/12/11 08:19:41;;;;;;;;;10.00;3.00;;;;;12.38;78.22;100354.16;5049010;28;45380;-80
2023/12/11 08:22:07;;;;;;;;;4.33;2.67;;;;;12.44;77.52;100369.84;5062079;28;45553;-80
2023/12/11 08:24:32;;;;;;;;;5.67;3.33;;;;;12.49;78.08;100375.91;5060929;28;46625;-78
2023/12/11 08:26:58;;;;;;;;;5.33;3.00;;;;;12.51;77.54;100387.28;5060395;28;45274;-79
2023/12/11 08:29:23;;;;;;;;;5.67;3.00;;;;;12.29;77.38;100353.38;5058008;28;45530;-80
2023/12/11 08:31:49;;;;;;;;;3.33;1.00;;;;;12.49;77.33;100381.16;5060656;28;45528;-77
2023/12/11 08:34:18;;;;;;;;;5.67;2.33;;;;;12.25;77.28;100341.16;5060166;28;45393;-79
2023/12/11 08:36:44;;;;;;;;;11.67;2.00;;;;;12.35;77.15;100351.56;5058764;28;45483;-76
2023/12/11 08:39:10;;;;;;;;;3.67;3.00;;;;;12.43;77.13;100363.72;5060629;28;45862;-78
2023/12/11 08:41:36;;;;;;;;;7.00;2.67;;;;;12.65;76.81;100395.84;5059669;28;46019;-79
2023/12/11 08:44:02;;;;;;;;;6.67;3.00;;;;;12.05;76.43;100298.50;5067559;28;46137;-74
2023/12/11 08:46:28;;;;;;;;;8.00;3.67;;;;;12.69;76.64;100405.47;5065539;28;45452;-76
2023/12/11 08:48:53;;;;;;;;;9.00;3.67;;;;;12.73;76.16;100422.03;5059749;28;45395;-77
2023/12/11 08:51:21;;;;;;;;;8.67;3.67;;;;;12.01;76.15;100291.56;5057738;28;45961;-77
2023/12/11 08:53:47;;;;;;;;;5.33;4.00;;;;;12.80;76.11;100409.69;5057789;28;45542;-75
2023/12/11 08:56:19;;;;;;;;;7.67;3.00;;;;;12.62;76.22;100380.09;5057558;28;45896;-74
2023/12/11 08:58:48;;;;;;;;;5.33;3.00;;;;;12.92;75.76;100420.91;5059212;28;45402;-74
2023/12/11 09:01:13;;;;;;;;;5.00;3.33;;;;;12.34;75.28;100308.69;5058031;28;45517;-73
2023/12/11 09:03:39;;;;;;;;;6.00;2.67;;;;;12.61;75.02;100352.13;5058432;28;47824;-71
2023/12/11 09:06:05;;;;;;;;;5.67;2.33;;;;;13.06;74.65;100422.50;5057750;28;45454;-76
2023/12/11 09:08:30;;;;;;;;;6.33;2.00;;;;;12.97;74.69;100394.56;5057332;28;45333;-75
2023/12/11 09:10:56;;;;;;;;;3.67;2.33;;;;;12.89;74.29;100364.91;5057063;28;45338;-73
2023/12/11 09:13:22;;;;;;;;;5.67;3.00;;;;;13.28;74.06;100425.75;5056125;28;46898;-72
2023/12/11 09:15:47;;;;;;;;;3.67;3.00;;;;;13.34;73.62;100433.56;5057288;28;45591;-70
2023/12/11 09:18:13;;;;;;;;;10.00;4.33;;;;;13.48;73.30;100430.75;5057711;28;45551;-71
2023/12/11 09:20:39;;;;;;;;;8.33;3.00;;;;;13.53;72.57;100434.16;5072856;27;45501;-72
2023/12/11 09:23:04;;;;;;;;;7.67;2.00;;;;;13.66;72.26;100440.09;5056073;28;45532;-74
2023/12/11 09:25:30;;;;;;;;;6.33;2.00;;;;;13.80;72.17;100440.75;5055331;28;46092;-71
2023/12/11 09:27:56;;;;;;;;;6.67;3.00;;;;;13.64;71.50;100391.88;5057750;28;45329;-72
2023/12/11 09:30:21;;;;;;;;;4.33;3.00;;;;;12.82;70.73;100247.63;5057118;28;45311;-76
2023/12/11 09:32:47;;;;;;;;;4.33;3.33;;;;;13.98;70.92;100450.13;5057198;28;45709;-81
2023/12/11 09:35:13;;;;;;;;;6.00;3.00;;;;;13.90;70.53;100452.00;5057867;28;45335;-77
2023/12/11 09:37:39;;;;;;;;;6.33;3.67;;;;;13.78;70.99;100446.03;5058124;28;45624;-77
2023/12/11 09:40:06;;;;;;;;;7.33;5.00;;;;;13.81;70.71;100450.41;5058636;28;45339;-74
2023/12/11 09:42:39;;;;;;;;;8.00;3.00;;;;;13.87;71.05;100455.56;5059399;28;46326;-75
2023/12/11 09:45:06;;;;;;;;;6.67;3.00;;;;;13.86;70.76;100471.38;5054476;28;45457;-78
2023/12/11 09:47:38;;;;;;;;;6.67;3.33;;;;;13.78;71.08;100480.25;5057947;28;45579;-77
2023/12/11 09:50:05;;;;;;;;;4.00;2.67;;;;;13.61;70.76;100457.72;5055037;28;45399;-76
2023/12/11 09:52:35;;;;;;;;;3.33;1.67;;;;;13.73;70.44;100476.81;5056335;28;46237;-76
2023/12/11 09:55:02;;;;;;;;;3.33;2.33;;;;;13.75;70.38;100487.34;5056467;28;45460;-76
2023/12/11 09:57:32;;;;;;;;;8.33;2.67;;;;;13.81;70.29;100495.16;5056219;28;45449;-74
2023/12/11 09:59:58;;;;;;;;;4.33;2.67;;;;;13.67;70.27;100468.16;5054570;28;45760;-76
2023/12/11 10:02:25;;;;;;;;;6.00;3.33;;;;;13.88;69.71;100495.91;5055961;28;45666;-77
2023/12/11 10:05:04;;;;;;;;;4.33;2.00;;;;;14.11;69.80;100493.78;5056894;28;45480;-77
2023/12/11 10:07:34;;;;;;;;;5.67;3.00;;;;;14.14;68.68;100470.03;5057998;28;45364;-77
2023/12/11 10:10:37;;;;;;;;;3.33;2.67;;;;;14.60;68.30;100494.75;5056082;28;45468;-77
2023/12/11 10:13:03;;;;;;;;;5.00;3.00;;;;;14.69;67.52;100468.22;5056270;28;45897;-77
2023/12/11 10:15:33;;;;;;;;;7.00;2.00;;;;;15.30;66.20;100496.88;5054845;28;45568;-78
2023/12/11 10:18:11;;;;;;;;;4.00;3.33;;;;;15.69;64.84;100510.97;5056523;28;45440;-76
2023/12/11 10:20:39;;;;;;;;;7.67;5.00;;;;;15.71;63.97;100474.88;5056350;28;45492;-75
2023/12/11 10:23:12;;;;;;;;;8.67;4.00;;;;;16.20;63.16;100491.28;5055499;28;45671;-74
2023/12/11 10:25:40;;;;;;;;;5.00;3.33;;;;;16.36;61.78;100471.50;5054701;28;45521;-79
2023/12/11 10:28:08;;;;;;;;;7.33;4.00;;;;;16.33;60.61;100435.44;5056353;28;45655;-76
2023/12/11 10:30:54;;;;;;;;;9.33;5.67;;;;;17.01;60.29;100497.09;5055750;28;45387;-76
2023/12/11 10:33:20;;;;;;;;;6.00;3.67;;;;;17.30;58.20;100484.81;5055045;28;45975;-75
2023/12/11 10:35:47;;;;;;;;;2.67;2.00;;;;;17.35;58.96;100498.78;5057405;28;45462;-76
2023/12/11 10:38:26;;;;;;;;;5.67;4.00;;;;;17.49;58.45;100501.00;5055602;28;45447;-77
2023/12/11 10:40:56;;;;;;;;;9.00;4.33;;;;;17.71;57.92;100495.91;5058946;28;45502;-74
2023/12/11 10:43:47;;;;;;;;;6.00;3.00;;;;;18.08;56.55;100468.25;5058829;28;45789;-77
2023/12/11 10:46:13;;;;;;;;;4.67;3.00;;;;;18.71;55.63;100492.63;5056203;28;45443;-78
2023/12/11 10:48:39;;;;;;;;;6.00;4.00;;;;;18.74;54.15;100496.00;5059963;28;45481;-77
2023/12/11 10:51:05;;;;;;;;;4.67;2.33;;;;;18.93;53.26;100493.59;5059962;28;45372;-75
2023/12/11 10:53:33;;;;;;;;;3.67;3.00;;;;;19.07;53.11;100499.25;5058767;28;45421;-75
2023/12/11 10:56:00;;;;;;;;;6.00;6.00;;;;;19.02;53.07;100490.59;5058439;28;45572;-73
2023/12/11 10:58:27;;;;;;;;;5.00;3.00;;;;;19.06;52.66;100484.28;5057478;28;45634;-73
2023/12/11 11:00:54;;;;;;;;;6.33;3.67;;;;;19.23;52.34;100485.44;5056843;28;45532;-75
2023/12/11 11:03:21;;;;;;;;;4.00;3.00;;;;;19.12;51.90;100461.94;5058362;28;45322;-77
2023/12/11 11:05:48;;;;;;;;;7.00;4.33;;;;;19.19;51.76;100489.13;5056983;28;45534;-73
2023/12/11 11:08:41;;;;;;;;;9.00;4.33;;;;;19.28;52.00;100488.78;5058961;28;45402;-74
2023/12/11 11:11:37;;;;;;;;;5.00;4.00;;;;;19.33;51.75;100491.25;5058768;28;45544;-75
2023/12/11 11:14:08;;;;;;;;;5.33;3.00;;;;;18.88;51.59;100486.72;5057242;28;45634;-76
2023/12/11 11:16:53;;;;;;;;;7.33;4.00;;;;;18.38;52.46;100493.72;5056514;28;45448;-75
2023/12/11 11:19:19;;;;;;;;;6.00;3.67;;;;;17.82;53.29;100455.84;5058885;28;45390;-75
2023/12/11 11:22:08;;;;;;;;;4.00;3.33;;;;;17.74;54.34;100496.66;5059606;28;45615;-73
2023/12/11 11:24:35;;;;;;;;;8.00;2.33;;;;;17.43;56.49;100487.94;5058453;28;46088;-72
2023/12/11 11:27:02;;;;;;;;;4.00;2.00;;;;;17.02;55.48;100477.66;5056615;28;45371;-71